createdAt,value
2023-03-05T00:00:41.231Z,9.20
2023-03-05T00:04:50.084Z,11.13
2023-03-05T00:08:57.170Z,10.27
2023-03-05T00:13:00.168Z,9.18
2023-03-05T00:17:03.658Z,9.50
2023-03-05T00:21:15.609Z,10.57
2023-03-05T00:25:20.603Z,11.00
2023-03-05T00:29:23.590Z,10.10
2023-03-05T00:33:27.238Z,11.63
2023-03-05T00:37:30.125Z,10.00
2023-03-05T00:41:35.729Z,10.48
2023-03-05T00:45:39.137Z,10.10
2023-03-05T00:49:42.361Z,10.90
2023-03-05T00:53:45.582Z,10.30
2023-03-05T00:57:50.682Z,10.98
2023-03-05T01:01:53.975Z,10.82
2023-03-05T01:05:57.514Z,10.07
2023-03-05T01:10:00.450Z,10.63
2023-03-05T01:14:05.090Z,10.52
2023-03-05T01:18:08.136Z,9.55
2023-03-05T01:22:12.159Z,10.93
2023-03-05T01:26:15.384Z,10.32
2023-03-05T01:30:20.714Z,10.70
2023-03-05T01:34:23.586Z,9.73
2023-03-05T01:38:27.234Z,9.88
2023-03-05T01:42:30.133Z,10.18
2023-03-05T01:46:36.825Z,10.15
2023-03-05T01:50:40.199Z,10.50
2023-03-05T01:54:46.315Z,10.65
2023-03-05T01:58:49.578Z,9.55
2023-03-05T02:02:55.123Z,9.63
2023-03-05T02:06:58.943Z,10.80
2023-03-05T02:11:02.200Z,8.57
2023-03-05T02:15:06.828Z,9.88
2023-03-05T02:19:13.107Z,10.55
2023-03-05T02:23:19.128Z,10.43
2023-03-05T02:27:27.291Z,9.60
2023-03-05T02:31:31.605Z,9.57
2023-03-05T02:35:35.276Z,8.45
2023-03-05T02:39:40.389Z,11.77
2023-03-05T02:43:43.936Z,10.35
2023-03-05T02:47:47.263Z,9.20
2023-03-05T02:51:51.878Z,9.80
2023-03-05T02:55:56.465Z,9.90
2023-03-05T02:59:59.741Z,9.88
2023-03-05T03:04:03.123Z,7.63
2023-03-05T03:08:06.824Z,10.38
2023-03-05T03:12:12.471Z,12.07
2023-03-05T03:16:16.545Z,7.63
2023-03-05T03:20:21.405Z,9.77
2023-03-05T03:24:24.426Z,11.82
2023-03-05T03:28:29.297Z,10.48
2023-03-05T03:32:33.087Z,8.85
2023-03-05T03:36:36.442Z,11.60
2023-03-05T03:40:39.750Z,10.27
2023-03-05T03:44:44.376Z,11.23
2023-03-05T03:48:51.462Z,10.43
2023-03-05T03:52:55.409Z,11.32
2023-03-05T03:56:58.479Z,11.00
2023-03-05T04:01:03.337Z,9.88
2023-03-05T04:05:07.397Z,10.43
2023-03-05T04:09:10.914Z,10.25
2023-03-05T04:13:13.995Z,9.20
2023-03-05T04:17:18.784Z,9.20
2023-03-05T04:21:21.720Z,9.82
2023-03-05T04:25:25.402Z,10.60
2023-03-05T04:29:28.492Z,9.75
2023-03-05T04:33:33.345Z,9.23
2023-03-05T04:37:36.431Z,9.95
2023-03-05T04:41:39.939Z,10.75
2023-03-05T04:45:44.776Z,11.85
2023-03-05T04:49:49.449Z,9.48
2023-03-05T04:53:52.469Z,7.95
2023-03-05T04:57:56.284Z,9.70
2023-03-05T05:01:59.502Z,8.75
2023-03-05T05:06:04.835Z,10.23
2023-03-05T05:10:09.335Z,10.00
2023-03-05T05:14:12.731Z,10.85
2023-03-05T05:18:15.675Z,10.80
2023-03-05T05:22:20.234Z,10.98
2023-03-05T05:26:23.277Z,9.93
2023-03-05T05:30:26.888Z,10.13
2023-03-05T05:34:29.793Z,10.95
2023-03-05T05:38:35.552Z,10.77
2023-03-05T05:42:39.171Z,11.57
2023-03-05T05:46:42.569Z,9.60
2023-03-05T05:51:08.234Z,10.07
2023-03-05T05:55:14.698Z,10.52
2023-03-05T05:59:17.534Z,12.05
2023-03-05T06:03:21.754Z,10.13
2023-03-05T06:07:24.684Z,11.80
2023-03-05T06:11:30.554Z,12.55
2023-03-05T06:15:33.518Z,13.40
2023-03-05T06:19:37.366Z,11.50
2023-03-05T06:23:40.667Z,11.80
2023-03-05T06:27:46.284Z,11.27
2023-03-05T06:31:50.752Z,12.75
2023-03-05T06:35:54.532Z,10.30
2023-03-05T06:39:57.741Z,10.80
2023-03-05T06:44:03.873Z,12.10
2023-03-05T06:48:07.198Z,14.77
2023-03-05T06:52:13.495Z,13.10
2023-03-05T06:56:16.926Z,12.55
2023-03-05T07:00:22.646Z,11.63
2023-03-05T07:04:25.984Z,11.70
2023-03-05T07:08:29.458Z,9.82
2023-03-05T07:12:33.881Z,10.65
2023-03-05T07:16:38.737Z,11.85
2023-03-05T07:20:41.941Z,10.50
2023-03-05T07:24:45.161Z,10.45
2023-03-05T07:28:48.468Z,11.65
2023-03-05T07:32:53.193Z,10.18
2023-03-05T07:36:56.275Z,10.45
2023-03-05T07:41:04.570Z,11.27
2023-03-05T07:45:08.625Z,13.25
2023-03-05T07:49:13.445Z,10.52
2023-03-05T07:53:17.108Z,12.18
2023-03-05T07:57:20.522Z,11.82
2023-03-05T08:01:23.825Z,12.90
2023-03-05T08:05:28.897Z,11.80
2023-03-05T08:09:32.041Z,11.07
2023-03-05T08:13:35.461Z,11.55
2023-03-05T08:17:38.912Z,13.02
2023-03-05T08:21:44.276Z,12.52
2023-03-05T08:25:47.734Z,11.88
2023-03-05T08:29:51.209Z,13.25
2023-03-05T08:33:56.663Z,11.73
2023-03-05T08:38:01.695Z,14.65
2023-03-05T08:42:06.928Z,10.82
2023-03-05T08:46:12.394Z,11.30
2023-03-05T08:50:15.307Z,10.85
2023-03-05T08:54:19.850Z,9.88
2023-03-05T08:58:22.740Z,10.93
2023-03-05T09:02:26.004Z,10.68
2023-03-05T09:06:29.475Z,11.38
2023-03-05T09:10:34.225Z,11.45
2023-03-05T09:14:37.121Z,11.32
2023-03-05T09:18:40.973Z,10.20
2023-03-05T09:22:43.954Z,12.00
2023-03-05T09:26:49.259Z,10.63
2023-03-05T09:30:52.192Z,11.05
2023-03-05T09:34:55.326Z,11.07
2023-03-05T09:38:58.843Z,9.13
2023-03-05T09:43:19.253Z,10.45
2023-03-05T09:47:45.789Z,7.72
2023-03-05T09:51:56.275Z,10.43
2023-03-05T09:56:03.352Z,9.57
2023-03-05T10:00:22.509Z,8.75
2023-03-05T10:04:30.190Z,11.25
2023-03-05T10:08:46.300Z,8.57
2023-03-05T10:12:53.495Z,9.70
2023-03-05T10:17:25.503Z,9.43
2023-03-05T10:21:32.860Z,8.80
2023-03-05T10:25:51.506Z,8.57
2023-03-05T10:30:06.577Z,8.00
2023-03-05T10:34:31.381Z,9.45
2023-03-05T10:39:12.495Z,8.27
2023-03-05T10:43:25.397Z,8.80
2023-03-05T10:51:39.773Z,8.15
2023-03-05T10:55:43.029Z,6.75
2023-03-05T10:59:51.162Z,7.28
2023-03-05T11:03:59.314Z,8.60
2023-03-05T11:08:25.101Z,7.93
2023-03-05T11:12:29.697Z,7.35
2023-03-05T11:16:35.037Z,7.93
2023-03-05T11:20:40.006Z,7.22
2023-03-05T11:24:47.007Z,6.90
2023-03-05T11:29:00.746Z,7.20
2023-03-05T11:33:11.804Z,7.60
2023-03-05T11:37:25.724Z,6.57
2023-03-05T11:41:37.314Z,7.13
2023-03-05T11:45:42.242Z,7.03
2023-03-05T11:49:49.745Z,6.65
2023-03-05T11:53:57.981Z,6.93
2023-03-05T11:58:14.356Z,8.70
2023-03-05T12:02:21.304Z,5.85
2023-03-05T12:06:32.974Z,8.32
2023-03-05T12:10:36.042Z,6.18
2023-03-05T12:14:49.360Z,6.63
2023-03-05T12:19:03.004Z,6.25
2023-03-05T12:23:06.420Z,6.97
2023-03-05T12:27:14.952Z,6.57
2023-03-05T12:31:37.951Z,6.30
2023-03-05T12:35:43.971Z,5.63
2023-03-05T12:39:59.723Z,5.35
2023-03-05T12:44:23.861Z,7.00
2023-03-05T12:48:45.158Z,5.55
2023-03-05T12:52:48.132Z,6.45
2023-03-05T12:56:53.729Z,6.03
2023-03-05T13:01:03.759Z,5.63
2023-03-05T13:05:21.532Z,5.30
2023-03-05T13:09:27.922Z,5.97
2023-03-05T13:13:34.967Z,6.50
2023-03-05T13:17:41.284Z,5.72
2023-03-05T13:21:46.114Z,5.38
2023-03-05T13:26:04.794Z,6.53
2023-03-05T13:30:22.451Z,7.30
2023-03-05T13:34:37.412Z,6.93
2023-03-05T13:38:48.694Z,6.75
2023-03-05T13:42:53.682Z,6.65
2023-03-05T13:47:09.765Z,5.35
2023-03-05T13:51:14.773Z,6.22
2023-03-05T13:55:19.645Z,8.13
2023-03-05T13:59:24.493Z,6.10
2023-03-05T14:03:30.385Z,6.45
2023-03-05T14:07:40.006Z,6.38
2023-03-05T14:11:53.163Z,6.90
2023-03-05T14:16:07.402Z,7.95
2023-03-05T14:20:24.402Z,6.70
2023-03-05T14:24:31.522Z,7.57
2023-03-05T14:28:37.623Z,6.22
2023-03-05T14:32:42.641Z,8.02
2023-03-05T14:36:51.218Z,7.00
2023-03-05T14:40:54.253Z,8.50
2023-03-05T14:45:00.420Z,6.88
2023-03-05T14:49:04.002Z,8.10
2023-03-05T14:53:10.401Z,7.20
2023-03-05T14:57:17.986Z,6.85
2023-03-05T15:01:22.541Z,7.03
2023-03-05T15:05:26.317Z,7.05
2023-03-05T15:09:30.500Z,6.55
2023-03-05T15:13:35.192Z,6.47
2023-03-05T15:25:45.733Z,7.07
2023-03-05T15:29:48.940Z,6.22
2023-03-05T15:33:51.830Z,7.57
2023-03-05T15:37:58.465Z,6.50
2023-03-05T15:42:01.658Z,6.60
2023-03-05T15:46:06.659Z,6.03
2023-03-05T15:50:11.493Z,6.63
2023-03-05T15:54:16.631Z,5.03
2023-03-05T15:58:20.035Z,5.65
2023-03-05T16:02:24.973Z,7.22
2023-03-05T16:06:28.208Z,5.85
2023-03-05T16:10:33.042Z,5.28
2023-03-05T16:14:36.269Z,5.10
2023-03-05T16:18:45.240Z,7.15
2023-03-05T16:22:49.389Z,4.75
2023-03-05T16:26:54.022Z,6.07
2023-03-05T16:30:59.666Z,6.85
2023-03-05T16:35:02.941Z,6.03
2023-03-05T16:39:06.427Z,8.15
2023-03-05T16:43:11.169Z,6.40
2023-03-05T16:47:14.346Z,7.43
2023-03-05T16:51:19.302Z,5.82
2023-03-05T16:55:23.078Z,6.15
2023-03-05T16:59:27.649Z,6.43
2023-03-05T17:03:31.177Z,7.32
2023-03-05T17:07:35.148Z,7.47
2023-03-05T17:11:40.937Z,6.03
2023-03-05T17:15:45.626Z,7.07
2023-03-05T17:19:49.531Z,7.57
2023-03-05T17:23:52.434Z,7.20
2023-03-05T17:27:56.061Z,7.53
2023-03-05T17:32:00.999Z,7.00
2023-03-05T17:36:05.313Z,6.78
2023-03-05T17:40:09.914Z,7.45
2023-03-05T17:44:13.328Z,8.15
2023-03-05T17:48:18.131Z,7.07
2023-03-05T17:52:21.803Z,7.47
2023-03-05T17:56:26.685Z,6.50
2023-03-05T18:00:31.789Z,9.07
2023-03-05T18:04:36.393Z,7.30
2023-03-05T18:08:39.682Z,7.82
2023-03-05T18:12:43.005Z,7.40
2023-03-05T18:16:48.428Z,6.15
2023-03-05T18:20:52.785Z,7.25
2023-03-05T18:24:56.387Z,7.13
2023-03-05T18:28:59.521Z,7.43
2023-03-05T18:33:03.027Z,7.72
2023-03-05T18:37:07.728Z,6.28
2023-03-05T18:41:11.145Z,6.25
2023-03-05T18:45:16.604Z,5.95
2023-03-05T18:49:20.094Z,6.53
2023-03-05T18:53:25.658Z,6.60
2023-03-05T18:57:28.818Z,5.10
2023-03-05T19:01:32.072Z,6.07
2023-03-05T19:05:36.247Z,6.47
2023-03-05T19:09:57.078Z,6.70
2023-03-05T19:14:01.200Z,7.10
2023-03-05T19:18:05.058Z,6.55
2023-03-05T19:22:08.886Z,8.38
2023-03-05T19:26:13.553Z,8.10
2023-03-05T19:30:19.061Z,6.45
2023-03-05T19:34:22.138Z,5.85
2023-03-05T19:38:25.389Z,4.93
2023-03-05T19:42:35.212Z,4.93
2023-03-05T19:46:40.499Z,5.30
2023-03-05T19:50:43.956Z,3.85
2023-03-05T19:54:50.016Z,4.93
2023-03-05T19:58:54.661Z,4.72
2023-03-05T20:02:59.202Z,3.63
2023-03-05T20:07:03.846Z,4.30
2023-03-05T20:11:07.910Z,4.18
2023-03-05T20:15:12.894Z,2.70
2023-03-05T20:19:18.700Z,3.25
2023-03-05T20:23:22.188Z,3.40
2023-03-05T20:27:25.379Z,2.90
2023-03-05T20:31:30.249Z,3.15
2023-03-05T20:35:34.739Z,3.13
2023-03-05T20:39:37.643Z,3.47
2023-03-05T20:43:45.400Z,3.25
2023-03-05T20:47:49.672Z,3.38
2023-03-05T20:51:53.168Z,2.97
2023-03-05T20:55:56.392Z,3.65
2023-03-05T21:00:00.282Z,3.40
2023-03-05T21:04:05.551Z,2.50
2023-03-05T21:08:08.853Z,3.20
2023-03-05T21:12:12.058Z,3.20
2023-03-05T21:16:18.114Z,3.83
2023-03-05T21:20:24.671Z,3.95
2023-03-05T21:25:16.636Z,3.25
2023-03-05T21:29:19.630Z,3.03
2023-03-05T21:33:25.239Z,5.10
2023-03-05T21:37:30.257Z,3.30
2023-03-05T21:41:34.028Z,3.50
2023-03-05T21:45:37.102Z,3.08
2023-03-05T21:49:41.103Z,3.95
2023-03-05T21:53:45.927Z,4.50
2023-03-05T21:57:49.056Z,3.50
2023-03-05T22:01:52.664Z,3.97
2023-03-05T22:05:56.442Z,4.07
2023-03-05T22:10:00.833Z,3.60
2023-03-05T22:14:04.292Z,4.70
2023-03-05T22:18:07.301Z,4.45
2023-03-05T22:22:10.566Z,4.63
2023-03-05T22:26:15.334Z,3.47
2023-03-05T22:30:18.702Z,4.55
2023-03-05T22:34:21.664Z,5.70
2023-03-05T22:38:26.288Z,5.97
2023-03-05T22:42:30.980Z,5.78
2023-03-05T22:46:34.624Z,5.60
2023-03-05T22:50:37.762Z,5.40
2023-03-05T22:54:41.216Z,3.97
2023-03-05T22:58:45.742Z,5.85
2023-03-05T23:02:49.632Z,5.65
2023-03-05T23:06:52.624Z,5.30
2023-03-05T23:10:55.859Z,5.35
2023-03-05T23:15:02.122Z,6.13
2023-03-05T23:19:06.606Z,5.72
2023-03-05T23:23:09.581Z,4.90
2023-03-05T23:27:16.664Z,6.97
2023-03-05T23:31:21.292Z,6.10
2023-03-05T23:35:27.190Z,4.63
2023-03-05T23:39:30.273Z,6.15
2023-03-05T23:43:33.550Z,6.90
2023-03-05T23:47:37.955Z,7.40
2023-03-05T23:51:41.639Z,6.97
2023-03-05T23:55:45.739Z,6.22
2023-03-05T23:59:48.988Z,6.60
